Time;durP1;ratioP1;P1;durP2;ratioP2;P2;SDS_P1;SDS_P2;PMS_P1;PMS_P2;Temp;Humidity;BMP_temperature;BMP_pressure;BME280_temperature;BME280_humidity;BME280_pressure;Samples;Min_cycle;Max_cycle;Signal;HPM_P1;HPM_P2
2022/02/11 00:00:56;;;;;;;2.33;0.88;;;18.50;64.60;;;;;;4995395;28;20187;-84
2022/02/11 00:08:29;;;;;;;3.75;0.98;;;18.50;64.70;;;;;;4980885;28;20167;-84
2022/02/11 00:10:54;;;;;;;5.32;1.52;;;18.40;64.50;;;;;;4994608;28;20192;-83
2022/02/11 00:13:20;;;;;;;3.42;0.90;;;18.40;64.70;;;;;;4978638;28;20164;-84
2022/02/11 00:15:45;;;;;;;2.90;0.90;;;18.40;64.70;;;;;;4978537;28;20185;-83
2022/02/11 00:18:13;;;;;;;4.18;1.10;;;18.50;64.40;;;;;;4994481;28;20188;-84
2022/02/11 00:20:39;;;;;;;3.05;1.05;;;18.40;63.90;;;;;;4978605;28;20165;-83
2022/02/11 00:23:06;;;;;;;3.72;0.90;;;18.50;64.10;;;;;;4978166;28;20161;-84
2022/02/11 00:25:37;;;;;;;2.25;0.82;;;18.50;64.20;;;;;;4961292;28;20216;-84
2022/02/11 00:33:31;;;;;;;4.10;1.17;;;18.50;64.40;;;;;;4994327;28;20167;-83
2022/02/11 00:36:04;;;;;;;1.65;0.82;;;18.40;64.30;;;;;;4978374;28;20160;-83
2022/02/11 00:38:54;;;;;;;4.60;1.23;;;18.40;63.80;;;;;;4979072;28;20152;-83
2022/02/11 00:45:14;;;;;;;4.07;1.17;;;18.50;64.10;;;;;;4980670;28;20243;-84
2022/02/11 01:02:57;;;;;;;1.95;0.90;;;18.40;63.90;;;;;;4979859;28;20184;-84
2022/02/11 01:05:23;;;;;;;3.55;1.10;;;18.30;63.70;;;;;;4995182;28;20181;-84
2022/02/11 01:07:49;;;;;;;4.22;1.00;;;18.40;63.30;;;;;;4977365;28;20156;-83
2022/02/11 01:10:17;;;;;;;3.78;1.10;;;18.30;64.40;;;;;;4977941;28;20192;-83
2022/02/11 01:12:44;;;;;;;3.03;0.80;;;18.30;64.40;;;;;;4993811;28;20180;-84
2022/02/11 01:15:10;;;;;;;2.60;1.08;;;18.30;63.60;;;;;;4977448;28;20164;-83
2022/02/11 01:17:41;;;;;;;2.75;0.98;;;18.40;63.80;;;;;;4976491;28;20175;-84
2022/02/11 01:20:14;;;;;;;3.05;1.00;;;18.30;64.10;;;;;;4978123;28;20156;-83
2022/02/11 01:22:58;;;;;;;2.50;1.08;;;18.30;64.20;;;;;;4993588;28;20188;-83
2022/02/11 01:28:22;;;;;;;2.05;0.70;;;18.40;64.10;;;;;;4993392;28;20199;-84
2022/02/11 01:31:13;;;;;;;3.47;1.00;;;18.30;64.00;;;;;;4962911;28;20262;-83
2022/02/11 01:33:50;;;;;;;1.83;1.10;;;18.30;63.90;;;;;;4979598;28;20210;-84
2022/02/11 01:39:21;;;;;;;2.17;0.80;;;18.30;64.50;;;;;;4978681;28;20168;-84
2022/02/11 01:44:58;;;;;;;2.90;1.17;;;18.30;64.00;;;;;;4993650;28;20168;-84
2022/02/11 01:47:41;;;;;;;3.22;0.90;;;18.30;64.30;;;;;;4979490;28;20263;-83
2022/02/11 01:52:51;;;;;;;4.65;1.02;;;18.30;63.90;;;;;;4994066;28;20164;-83
2022/02/11 01:55:42;;;;;;;3.80;1.00;;;18.30;64.00;;;;;;4979697;28;20184;-84
2022/02/11 01:58:40;;;;;;;2.25;1.00;;;18.30;64.30;;;;;;4993040;28;20210;-84
2022/02/11 02:01:08;;;;;;;1.92;0.80;;;18.20;64.20;;;;;;4993776;28;20179;-83
2022/02/11 02:06:38;;;;;;;3.05;1.20;;;18.20;64.40;;;;;;4978571;28;20218;-84
2022/02/11 02:12:17;;;;;;;1.85;0.82;;;18.20;64.00;;;;;;4992967;28;20191;-84
2022/02/11 02:25:25;;;;;;;2.25;0.75;;;18.20;64.40;;;;;;4992540;28;20255;-84
2022/02/11 02:28:44;;;;;;;2.72;1.00;;;18.20;64.30;;;;;;4978751;28;20251;-83
2022/02/11 02:33:39;;;;;;;3.45;1.00;;;18.20;64.30;;;;;;4982613;28;20167;-83
2022/02/11 02:36:36;;;;;;;2.95;0.88;;;18.20;63.40;;;;;;4983061;28;20184;-84
2022/02/11 02:39:20;;;;;;;1.73;0.70;;;18.30;64.00;;;;;;4983115;28;20227;-83
2022/02/11 02:57:46;;;;;;;4.38;1.02;;;18.10;63.90;;;;;;4981255;28;20199;-84
2022/02/11 03:17:00;;;;;;;4.05;1.30;;;18.10;64.70;;;;;;4996157;28;20227;-85
2022/02/11 03:35:13;;;;;;;3.30;1.00;;;18.10;64.70;;;;;;4973237;28;20175;-83
2022/02/11 04:08:11;;;;;;;2.50;1.00;;;18.00;64.20;;;;;;4973549;28;20232;-84
2022/02/11 04:21:03;;;;;;;1.98;0.80;;;18.00;64.40;;;;;;4980806;28;20243;-83
2022/02/11 04:26:42;;;;;;;1.77;0.77;;;18.00;64.20;;;;;;4973954;28;20769;-84
2022/02/11 04:55:34;;;;;;;3.08;0.90;;;17.90;64.70;;;;;;4979968;28;20591;-84
2022/02/11 05:00:42;;;;;;;1.63;0.88;;;17.90;64.50;;;;;;4994965;28;20164;-84
2022/02/11 05:03:07;;;;;;;3.33;0.90;;;17.90;64.50;;;;;;4977532;28;20179;-84
2022/02/11 05:05:49;;;;;;;2.67;1.10;;;17.90;64.40;;;;;;4978590;28;20266;-84
2022/02/11 05:08:19;;;;;;;1.15;0.70;;;17.90;64.40;;;;;;4979564;28;20228;-83
2022/02/11 05:10:45;;;;;;;2.58;0.73;;;17.90;64.40;;;;;;4977666;28;20737;-83
2022/02/11 05:13:11;;;;;;;2.25;0.90;;;17.90;64.30;;;;;;4977252;28;20208;-84
2022/02/11 05:15:37;;;;;;;4.45;1.00;;;17.90;64.50;;;;;;4977477;28;20168;-84
2022/02/11 05:18:03;;;;;;;1.63;0.70;;;17.90;64.10;;;;;;4977376;28;20164;-84
2022/02/11 05:20:29;;;;;;;3.78;1.05;;;17.90;64.60;;;;;;4993492;28;20160;-84
2022/02/11 05:22:55;;;;;;;2.60;1.00;;;17.90;64.30;;;;;;4985821;28;20160;-84
2022/02/11 05:25:20;;;;;;;2.88;0.80;;;17.80;63.50;;;;;;4993341;28;20226;-84
2022/02/11 05:27:46;;;;;;;1.23;0.60;;;18.00;63.60;;;;;;4977785;28;20179;-84
2022/02/11 05:30:11;;;;;;;2.60;0.70;;;18.00;63.70;;;;;;4960992;28;20676;-84
2022/02/11 05:32:37;;;;;;;2.85;1.05;;;18.00;63.20;;;;;;4993333;28;20262;-84
2022/02/11 05:35:03;;;;;;;2.78;0.88;;;18.10;62.80;;;;;;4977348;28;20585;-83
2022/02/11 05:37:29;;;;;;;1.02;0.70;;;18.10;62.90;;;;;;4977164;28;20215;-84
2022/02/11 05:39:55;;;;;;;3.05;0.95;;;18.10;62.20;;;;;;4993137;28;20172;-83
2022/02/11 05:42:20;;;;;;;1.55;0.80;;;18.20;61.50;;;;;;4960778;28;20164;-84
2022/02/11 05:44:46;;;;;;;2.30;0.77;;;18.20;61.70;;;;;;4994275;28;20156;-84
2022/02/11 05:47:18;;;;;;;2.33;0.70;;;18.20;62.00;;;;;;4978866;28;20193;-84
2022/02/11 05:49:44;;;;;;;2.35;0.60;;;18.20;60.90;;;;;;4994602;28;20279;-83
2022/02/11 05:52:12;;;;;;;2.83;0.80;;;18.20;61.60;;;;;;4991378;28;20592;-83
2022/02/11 05:54:38;;;;;;;2.45;0.80;;;18.20;62.10;;;;;;4958103;28;20191;-83
2022/02/11 05:57:03;;;;;;;2.00;0.90;;;18.20;61.50;;;;;;4975490;28;20162;-83
2022/02/11 05:59:29;;;;;;;1.38;0.70;;;18.20;61.40;;;;;;4975682;28;20175;-84
2022/02/11 06:01:55;;;;;;;3.88;0.80;;;18.20;61.60;;;;;;4968167;28;20255;-84
2022/02/11 06:04:24;;;;;;;1.67;0.80;;;18.20;61.50;;;;;;4992751;28;20182;-84
2022/02/11 06:06:51;;;;;;;1.67;0.90;;;18.30;61.10;;;;;;4992545;28;20631;-84
2022/02/11 06:09:18;;;;;;;1.30;0.60;;;18.30;60.90;;;;;;4976772;28;20168;-82
2022/02/11 06:11:46;;;;;;;1.25;0.68;;;18.20;60.70;;;;;;4943770;28;20180;-83
2022/02/11 06:14:13;;;;;;;2.22;0.93;;;18.30;60.70;;;;;;4943839;28;20180;-83
2022/02/11 06:16:40;;;;;;;2.00;0.60;;;18.30;60.80;;;;;;4975782;28;20191;-83
2022/02/11 06:19:06;;;;;;;1.25;0.80;;;18.30;61.00;;;;;;4943957;28;20184;-83
2022/02/11 06:21:33;;;;;;;3.30;0.80;;;18.30;61.10;;;;;;4959563;28;20180;-83
2022/02/11 06:23:59;;;;;;;1.20;0.63;;;18.30;60.90;;;;;;4992634;28;20167;-84
2022/02/11 06:26:26;;;;;;;0.82;0.57;;;18.30;60.20;;;;;;4992643;28;20224;-83
2022/02/11 06:28:52;;;;;;;1.90;0.70;;;18.30;60.80;;;;;;4992654;28;20172;-83
2022/02/11 06:31:18;;;;;;;3.17;0.90;;;18.20;60.50;;;;;;4993291;28;20291;-84
2022/02/11 06:33:44;;;;;;;1.40;0.70;;;18.30;60.20;;;;;;4976891;28;20262;-84
2022/02/11 06:36:10;;;;;;;2.30;0.70;;;18.30;59.80;;;;;;4976594;28;20160;-83
2022/02/11 06:38:36;;;;;;;1.58;0.70;;;18.40;59.40;;;;;;4976782;28;20641;-83
2022/02/11 06:41:02;;;;;;;1.45;0.75;;;18.40;59.70;;;;;;4992312;28;20259;-83
2022/02/11 06:43:28;;;;;;;1.88;0.90;;;18.40;59.70;;;;;;4976795;28;20259;-83
2022/02/11 06:45:53;;;;;;;1.02;0.60;;;18.40;60.30;;;;;;4976206;28;20258;-83
2022/02/11 06:48:23;;;;;;;1.65;0.73;;;18.40;59.80;;;;;;5003958;28;20167;-83
2022/02/11 06:50:50;;;;;;;1.17;0.70;;;18.40;60.70;;;;;;4995283;28;20573;-84
2022/02/11 06:53:16;;;;;;;1.10;0.70;;;18.30;60.20;;;;;;4982569;28;20152;-84
2022/02/11 06:55:44;;;;;;;1.40;0.75;;;18.30;60.00;;;;;;4995690;28;20230;-83
2022/02/11 06:58:12;;;;;;;1.17;0.60;;;18.30;59.70;;;;;;4946770;28;20183;-83
2022/02/11 07:00:44;;;;;;;1.65;0.70;;;18.40;59.50;;;;;;4931179;28;20643;-83
2022/02/11 07:03:13;;;;;;;0.80;0.50;;;18.40;59.40;;;;;;4995575;28;20221;-84
2022/02/11 07:05:39;;;;;;;1.83;0.80;;;18.30;59.30;;;;;;4960021;28;20183;-83
2022/02/11 07:08:05;;;;;;;1.38;0.68;;;18.40;59.40;;;;;;4993258;28;20171;-83
2022/02/11 07:10:31;;;;;;;2.33;0.98;;;18.50;59.80;;;;;;4977425;28;20184;-84
2022/02/11 07:12:58;;;;;;;1.77;0.75;;;18.50;59.50;;;;;;4961420;28;20179;-83
2022/02/11 07:15:24;;;;;;;1.35;0.70;;;18.40;59.30;;;;;;4979976;28;20258;-83
2022/02/11 07:17:50;;;;;;;1.48;0.57;;;18.40;59.70;;;;;;4998312;28;20647;-85
2022/02/11 07:20:15;;;;;;;2.33;0.90;;;18.40;59.80;;;;;;5016528;28;20163;-84
2022/02/11 07:22:42;;;;;;;1.15;0.60;;;18.40;59.20;;;;;;4998837;28;20180;-83
2022/02/11 07:25:08;;;;;;;1.25;0.55;;;18.40;59.00;;;;;;4999224;28;20611;-83
2022/02/11 07:27:35;;;;;;;1.98;0.70;;;18.40;57.70;;;;;;4983676;28;20612;-84
2022/02/11 07:30:01;;;;;;;1.95;0.70;;;18.40;57.70;;;;;;4999195;28;20253;-84
2022/02/11 07:32:28;;;;;;;2.05;0.65;;;18.50;57.90;;;;;;4982703;28;20164;-84
2022/02/11 07:34:54;;;;;;;1.17;0.90;;;18.50;57.30;;;;;;4983344;28;20182;-83
2022/02/11 07:37:20;;;;;;;1.05;0.60;;;18.60;57.40;;;;;;4983401;28;20167;-84
2022/02/11 07:39:47;;;;;;;1.08;0.65;;;18.40;58.00;;;;;;4998803;28;20187;-83
2022/02/11 07:42:13;;;;;;;1.90;0.80;;;18.50;58.20;;;;;;4998624;28;20203;-83
2022/02/11 07:44:39;;;;;;;0.73;0.52;;;18.50;58.30;;;;;;4998625;28;20248;-83
2022/02/11 07:47:04;;;;;;;1.15;0.60;;;18.50;58.70;;;;;;4998376;28;20156;-83
2022/02/11 07:49:30;;;;;;;1.45;0.60;;;18.50;57.90;;;;;;4998373;28;20199;-83
2022/02/11 07:51:56;;;;;;;0.75;0.50;;;18.50;58.70;;;;;;5016954;28;20190;-84
2022/02/11 07:54:21;;;;;;;1.05;0.50;;;18.50;58.30;;;;;;4982580;28;20857;-83
2022/02/11 07:56:47;;;;;;;1.67;0.60;;;18.50;59.00;;;;;;4997964;28;20155;-83
2022/02/11 07:59:13;;;;;;;0.98;0.70;;;18.50;58.20;;;;;;4997192;28;20238;-83
2022/02/11 08:01:38;;;;;;;1.05;0.52;;;18.40;58.20;;;;;;4997220;28;20151;-83
2022/02/11 08:04:05;;;;;;;2.08;0.82;;;18.50;58.60;;;;;;4981096;28;20653;-83
2022/02/11 08:06:30;;;;;;;1.70;0.60;;;18.50;58.20;;;;;;4980939;28;20211;-83
2022/02/11 08:08:56;;;;;;;1.92;0.60;;;18.60;58.90;;;;;;4997305;28;20699;-84
2022/02/11 08:11:21;;;;;;;1.00;0.47;;;18.50;58.70;;;;;;5014905;28;20548;-83
2022/02/11 08:13:47;;;;;;;1.02;0.63;;;18.40;59.40;;;;;;5014988;28;20616;-83
2022/02/11 08:16:13;;;;;;;1.35;0.60;;;18.40;58.90;;;;;;4998214;28;20175;-83
2022/02/11 08:18:39;;;;;;;1.00;0.68;;;18.50;59.40;;;;;;5016116;28;20603;-83
2022/02/11 08:21:05;;;;;;;0.80;0.50;;;18.50;58.10;;;;;;4998137;28;20609;-83
2022/02/11 08:23:31;;;;;;;0.70;0.60;;;18.50;59.10;;;;;;4981686;28;20237;-83
2022/02/11 08:25:56;;;;;;;0.90;0.50;;;18.50;58.30;;;;;;4980489;28;20675;-83
2022/02/11 08:28:22;;;;;;;0.98;0.50;;;18.50;59.20;;;;;;4965806;28;20172;-85
2022/02/11 08:30:50;;;;;;;0.77;0.60;;;18.50;59.80;;;;;;4978603;28;20200;-83
2022/02/11 08:33:21;;;;;;;1.48;0.60;;;18.50;59.20;;;;;;4964254;28;20168;-83
2022/02/11 08:35:48;;;;;;;1.13;0.60;;;18.50;58.30;;;;;;4980957;28;20167;-83
2022/02/11 08:38:15;;;;;;;1.30;0.47;;;18.50;58.20;;;;;;4997792;28;20175;-83
2022/02/11 08:40:40;;;;;;;1.77;0.63;;;18.40;58.50;;;;;;4998899;28;20195;-83
2022/02/11 08:43:06;;;;;;;1.02;0.80;;;18.60;58.40;;;;;;4981771;28;20159;-83
2022/02/11 08:45:36;;;;;;;1.38;0.70;;;18.60;58.10;;;;;;4981609;28;20623;-83
2022/02/11 08:48:04;;;;;;;1.23;0.55;;;18.60;57.20;;;;;;4981757;28;20302;-83
2022/02/11 08:50:30;;;;;;;0.55;0.40;;;18.60;58.00;;;;;;4998128;28;20245;-83
2022/02/11 08:52:56;;;;;;;0.57;0.40;;;18.60;57.40;;;;;;4997382;28;20242;-83
2022/02/11 08:55:23;;;;;;;1.42;0.60;;;18.60;57.70;;;;;;4997678;28;20151;-84
2022/02/11 08:57:52;;;;;;;0.85;0.60;;;18.60;58.00;;;;;;4997442;28;20171;-83
2022/02/11 09:00:18;;;;;;;1.05;0.50;;;18.60;57.40;;;;;;4980864;28;20179;-84
2022/02/11 09:02:44;;;;;;;0.80;0.40;;;18.60;57.60;;;;;;4997039;28;20158;-83
2022/02/11 09:05:10;;;;;;;0.65;0.50;;;18.60;57.70;;;;;;4980547;28;20164;-82
2022/02/11 09:07:35;;;;;;;0.90;0.50;;;18.70;56.80;;;;;;4980495;28;20199;-83
2022/02/11 09:10:04;;;;;;;1.88;0.50;;;18.60;56.90;;;;;;4981052;28;20206;-83
2022/02/11 09:12:29;;;;;;;0.88;0.60;;;18.70;57.70;;;;;;4980963;28;20170;-83
2022/02/11 09:14:56;;;;;;;0.68;0.50;;;18.70;56.90;;;;;;4979449;28;20163;-83
2022/02/11 09:17:22;;;;;;;1.30;0.60;;;18.70;56.80;;;;;;4979901;28;20217;-83
2022/02/11 09:19:50;;;;;;;1.08;0.50;;;18.70;56.20;;;;;;4996292;28;20253;-82
2022/02/11 09:22:17;;;;;;;0.90;0.52;;;18.80;56.90;;;;;;5012854;28;20195;-82
2022/02/11 09:24:43;;;;;;;1.00;0.60;;;18.70;56.90;;;;;;4996347;28;20199;-83
2022/02/11 09:27:09;;;;;;;1.67;0.70;;;18.80;56.60;;;;;;4996146;28;20254;-83
2022/02/11 09:29:35;;;;;;;1.00;0.50;;;18.80;57.70;;;;;;4980683;28;20191;-83
2022/02/11 09:32:00;;;;;;;0.82;0.50;;;18.80;57.50;;;;;;5013886;28;20206;-82
2022/02/11 09:34:26;;;;;;;1.10;0.50;;;18.70;57.30;;;;;;4980136;28;20160;-83
2022/02/11 09:36:52;;;;;;;1.00;0.50;;;18.70;58.40;;;;;;4980804;28;20217;-82
2022/02/11 09:39:18;;;;;;;1.15;0.70;;;18.70;57.30;;;;;;4980128;28;20160;-83
2022/02/11 09:41:44;;;;;;;2.03;0.55;;;18.70;57.40;;;;;;4980034;28;20170;-82
2022/02/11 09:44:10;;;;;;;1.40;0.60;;;18.70;57.60;;;;;;4996080;28;20576;-83
2022/02/11 09:46:37;;;;;;;0.90;0.65;;;18.70;58.00;;;;;;4996334;28;20618;-83
2022/02/11 09:49:04;;;;;;;1.58;0.75;;;18.70;57.90;;;;;;4980069;28;20163;-83
2022/02/11 09:51:30;;;;;;;1.30;0.60;;;18.70;57.50;;;;;;4979595;28;20282;-82
2022/02/11 09:53:56;;;;;;;1.83;0.65;;;18.70;57.60;;;;;;4980454;28;20187;-84
2022/02/11 09:56:22;;;;;;;0.40;0.40;;;18.70;56.60;;;;;;4996649;28;20166;-82
2022/02/11 09:58:49;;;;;;;1.42;0.60;;;18.70;57.00;;;;;;4995974;28;20162;-82
2022/02/11 10:01:17;;;;;;;1.88;0.55;;;18.80;57.30;;;;;;4995883;28;20152;-83
2022/02/11 10:04:06;;;;;;;0.80;0.50;;;18.80;56.40;;;;;;4979328;28;20736;-83
2022/02/11 10:06:32;;;;;;;1.02;0.60;;;18.90;56.20;;;;;;4995602;28;20252;-82
2022/02/11 10:08:58;;;;;;;1.17;0.60;;;18.80;57.30;;;;;;4998058;28;20155;-81
2022/02/11 10:11:24;;;;;;;0.88;0.60;;;18.80;56.00;;;;;;4996584;28;20195;-82
2022/02/11 10:13:50;;;;;;;1.15;0.57;;;18.80;55.40;;;;;;4996677;28;20186;-82
2022/02/11 10:16:16;;;;;;;1.08;0.60;;;18.90;57.00;;;;;;4997016;28;20159;-83
2022/02/11 10:18:46;;;;;;;1.02;0.50;;;18.90;56.50;;;;;;5015094;28;20155;-83
2022/02/11 10:21:15;;;;;;;0.70;0.50;;;18.90;55.80;;;;;;4981038;28;20171;-83
2022/02/11 10:23:42;;;;;;;0.50;0.40;;;18.90;56.70;;;;;;4998511;28;20599;-82
2022/02/11 10:26:14;;;;;;;2.70;0.57;;;18.90;55.70;;;;;;4981696;28;20309;-83
2022/02/11 10:28:43;;;;;;;0.82;0.50;;;18.90;56.30;;;;;;5000744;28;20179;-82
2022/02/11 10:31:11;;;;;;;0.85;0.52;;;18.90;56.00;;;;;;4984111;28;20278;-83
2022/02/11 10:34:00;;;;;;;0.55;0.45;;;18.90;55.80;;;;;;4998044;28;20160;-83
2022/02/11 10:36:29;;;;;;;1.67;0.60;;;19.00;56.40;;;;;;4997091;28;20218;-82
2022/02/11 10:39:12;;;;;;;1.90;0.70;;;19.00;55.10;;;;;;4996689;28;20578;-83
2022/02/11 10:41:41;;;;;;;0.60;0.50;;;19.00;55.80;;;;;;4980651;28;20194;-83
2022/02/11 10:44:10;;;;;;;1.77;0.80;;;19.00;56.40;;;;;;4996163;28;20238;-83
2022/02/11 10:46:39;;;;;;;1.33;0.60;;;19.00;55.20;;;;;;4996649;28;20183;-83
2022/02/11 10:49:05;;;;;;;0.90;0.50;;;19.00;55.20;;;;;;5015493;28;20206;-83
2022/02/11 10:51:31;;;;;;;2.03;0.65;;;18.90;55.30;;;;;;4999995;28;20191;-83
2022/02/11 10:53:57;;;;;;;0.90;0.70;;;19.00;55.50;;;;;;4984009;28;20254;-82
2022/02/11 10:56:25;;;;;;;1.58;0.57;;;18.90;54.40;;;;;;5001221;28;20608;-83
2022/02/11 10:58:53;;;;;;;0.98;0.60;;;19.10;55.80;;;;;;5001507;28;20522;-83
2022/02/11 11:01:19;;;;;;;0.90;0.60;;;19.00;55.20;;;;;;5000827;28;20148;-84
2022/02/11 11:03:46;;;;;;;1.00;0.57;;;19.10;54.60;;;;;;4983862;28;20223;-82
2022/02/11 11:06:13;;;;;;;0.80;0.70;;;19.00;56.40;;;;;;4984397;28;20171;-83
2022/02/11 11:08:41;;;;;;;1.13;0.57;;;19.00;55.10;;;;;;5000922;28;20183;-83
2022/02/11 11:11:08;;;;;;;1.38;0.63;;;19.00;55.90;;;;;;5000587;28;20192;-83
2022/02/11 11:13:36;;;;;;;0.80;0.50;;;19.00;56.40;;;;;;5000065;28;20254;-83
2022/02/11 11:16:01;;;;;;;2.08;0.60;;;19.00;56.50;;;;;;4983902;28;20159;-82
2022/02/11 11:18:28;;;;;;;0.93;0.50;;;19.00;55.70;;;;;;4999796;28;20182;-83
2022/02/11 11:20:54;;;;;;;1.48;0.70;;;19.00;56.00;;;;;;4987058;28;20172;-82
2022/02/11 11:23:24;;;;;;;0.65;0.60;;;19.00;55.70;;;;;;4983572;28;20590;-82
2022/02/11 11:26:03;;;;;;;1.52;0.50;;;19.00;55.90;;;;;;5017390;28;20306;-83
2022/02/11 11:28:49;;;;;;;0.90;0.50;;;19.00;55.70;;;;;;4999476;28;20234;-84
2022/02/11 11:31:22;;;;;;;0.80;0.50;;;19.00;56.30;;;;;;4999908;28;20192;-83
2022/02/11 11:33:48;;;;;;;2.72;0.70;;;19.00;56.00;;;;;;4983076;28;20234;-87
2022/02/11 11:36:16;;;;;;;3.67;0.60;;;18.90;56.60;;;;;;5016055;28;20636;-86
2022/02/11 11:38:46;;;;;;;3.10;0.70;;;19.00;55.90;;;;;;4982440;28;20219;-84
2022/02/11 11:41:22;;;;;;;2.58;0.60;;;19.00;56.50;;;;;;4997952;28;20750;-83
2022/02/11 11:43:53;;;;;;;1.10;0.60;;;19.00;54.50;;;;;;4998445;28;20159;-85
2022/02/11 11:46:24;;;;;;;2.20;0.60;;;18.90;55.90;;;;;;4982118;28;20631;-85
2022/02/11 11:49:03;;;;;;;1.05;0.60;;;19.00;55.50;;;;;;4998852;28;20152;-85
2022/02/11 11:52:05;;;;;;;1.75;0.50;;;19.00;54.70;;;;;;4998410;28;20269;-84
2022/02/11 11:54:34;;;;;;;0.93;0.50;;;19.00;55.20;;;;;;4981170;28;20581;-83
2022/02/11 11:57:09;;;;;;;1.20;0.50;;;19.00;54.70;;;;;;4965199;28;20183;-83
2022/02/11 11:59:51;;;;;;;1.02;0.45;;;19.00;55.80;;;;;;4998215;28;20162;-83
2022/02/11 12:02:20;;;;;;;2.65;0.88;;;19.00;56.40;;;;;;4999315;28;20151;-84
2022/02/11 12:04:49;;;;;;;1.27;0.55;;;19.00;55.10;;;;;;4995984;28;20247;-87
2022/02/11 12:07:18;;;;;;;1.00;0.50;;;19.10;55.50;;;;;;4995387;28;20151;-83
2022/02/11 12:09:49;;;;;;;3.58;0.60;;;19.10;55.30;;;;;;4979504;28;20218;-82
2022/02/11 12:12:18;;;;;;;1.10;0.57;;;19.10;56.10;;;;;;4980861;28;20168;-83
2022/02/11 12:14:44;;;;;;;0.70;0.52;;;19.10;55.20;;;;;;4996423;28;20198;-83
2022/02/11 12:17:11;;;;;;;1.02;0.50;;;19.10;55.80;;;;;;4979606;28;20186;-83
2022/02/11 12:19:38;;;;;;;2.42;0.50;;;19.10;54.90;;;;;;4996996;28;20261;-83
2022/02/11 12:22:06;;;;;;;0.52;0.45;;;19.10;55.30;;;;;;4997682;28;20626;-83
2022/02/11 12:27:20;;;;;;;1.65;0.45;;;19.20;55.20;;;;;;5000099;28;20671;-83
2022/02/11 12:29:54;;;;;;;0.55;0.55;;;19.10;54.90;;;;;;4997991;28;20195;-82
2022/02/11 12:32:22;;;;;;;1.08;0.47;;;19.10;55.30;;;;;;4997146;28;20205;-82
2022/02/11 12:34:49;;;;;;;1.02;0.60;;;19.20;54.30;;;;;;4998065;28;20268;-82
2022/02/11 12:37:16;;;;;;;0.80;0.40;;;19.40;54.30;;;;;;4982465;28;20209;-83
2022/02/11 12:39:42;;;;;;;1.10;0.50;;;19.30;54.00;;;;;;4997291;28;20168;-83
2022/02/11 12:42:08;;;;;;;1.17;0.50;;;19.40;54.50;;;;;;4981914;28;20532;-83
2022/02/11 12:44:34;;;;;;;0.75;0.43;;;19.40;53.90;;;;;;4997911;28;20350;-83
2022/02/11 12:47:00;;;;;;;0.52;0.50;;;19.30;54.60;;;;;;5015275;28;20148;-83
2022/02/11 12:49:26;;;;;;;0.85;0.40;;;19.30;54.70;;;;;;5014999;28;20238;-83
2022/02/11 12:51:53;;;;;;;0.40;0.40;;;19.30;54.20;;;;;;4997197;28;20155;-83
2022/02/11 12:54:19;;;;;;;0.63;0.40;;;19.30;54.00;;;;;;4997618;28;20218;-83
2022/02/11 12:56:46;;;;;;;10.73;0.90;;;19.30;54.10;;;;;;4981537;28;20254;-83
2022/02/11 12:59:12;;;;;;;0.65;0.55;;;19.30;54.50;;;;;;4981059;28;20167;-83
2022/02/11 13:01:38;;;;;;;1.88;0.60;;;19.30;54.20;;;;;;4980673;28;20262;-83
2022/02/11 13:04:04;;;;;;;1.15;0.60;;;19.30;54.60;;;;;;5014818;28;20343;-83
2022/02/11 13:06:32;;;;;;;0.98;0.50;;;19.40;53.90;;;;;;4980893;28;20171;-83
2022/02/11 13:09:03;;;;;;;0.70;0.40;;;19.20;54.40;;;;;;4980926;28;20164;-83
2022/02/11 13:11:30;;;;;;;1.45;0.50;;;19.30;54.60;;;;;;4981029;28;20202;-82
2022/02/11 13:14:04;;;;;;;1.67;0.45;;;19.30;54.10;;;;;;5014556;28;20183;-83
2022/02/11 13:16:31;;;;;;;0.63;0.43;;;19.30;54.20;;;;;;4997086;28;20155;-83
2022/02/11 13:18:57;;;;;;;1.05;0.50;;;19.30;54.20;;;;;;4996888;28;20218;-83
2022/02/11 13:21:23;;;;;;;0.75;0.55;;;19.30;54.30;;;;;;4980452;28;20198;-83
2022/02/11 13:23:50;;;;;;;3.30;0.60;;;19.30;54.00;;;;;;4980616;28;20225;-83
2022/02/11 13:26:15;;;;;;;0.82;0.40;;;19.30;54.00;;;;;;4979951;28;20328;-83
2022/02/11 13:28:49;;;;;;;0.95;0.40;;;19.30;54.20;;;;;;4996358;28;20666;-83
2022/02/11 13:31:16;;;;;;;0.88;0.57;;;19.20;54.00;;;;;;4996190;28;20233;-83
2022/02/11 13:33:41;;;;;;;0.60;0.55;;;19.20;53.40;;;;;;4996364;28;20158;-83
2022/02/11 13:36:10;;;;;;;0.40;0.35;;;19.30;52.50;;;;;;4980520;28;20151;-83
2022/02/11 13:38:40;;;;;;;0.77;0.50;;;19.30;53.50;;;;;;4979860;28;20163;-82
2022/02/11 13:41:09;;;;;;;2.72;0.40;;;19.30;53.80;;;;;;4996058;28;20155;-83
2022/02/11 13:43:53;;;;;;;0.88;0.50;;;19.20;54.00;;;;;;4996441;28;20227;-83
2022/02/11 13:46:28;;;;;;;0.55;0.40;;;19.20;51.70;;;;;;4980209;28;20281;-83
2022/02/11 13:48:55;;;;;;;0.65;0.50;;;19.20;53.40;;;;;;4980592;28;20159;-83
2022/02/11 13:51:20;;;;;;;2.80;0.30;;;19.20;54.00;;;;;;4979971;28;20199;-82
2022/02/11 13:53:48;;;;;;;1.02;0.50;;;19.20;51.70;;;;;;4984385;28;20171;-83
2022/02/11 13:56:15;;;;;;;1.33;0.60;;;19.20;53.50;;;;;;4977147;28;20227;-82
2022/02/11 13:59:00;;;;;;;0.77;0.50;;;19.20;52.40;;;;;;4974512;28;20649;-83
2022/02/11 14:01:28;;;;;;;1.55;0.50;;;19.30;54.40;;;;;;4996135;28;20160;-83
2022/02/11 14:03:58;;;;;;;0.73;0.60;;;19.20;53.30;;;;;;4996247;28;20166;-82
2022/02/11 14:06:24;;;;;;;0.70;0.50;;;19.30;53.20;;;;;;4964229;28;20531;-83
2022/02/11 14:08:53;;;;;;;0.55;0.40;;;19.20;54.40;;;;;;4996106;28;20209;-84
2022/02/11 14:11:19;;;;;;;0.70;0.43;;;19.30;52.70;;;;;;4979973;28;20187;-82
2022/02/11 14:13:46;;;;;;;1.10;0.40;;;19.30;52.50;;;;;;4979882;28;20176;-82
2022/02/11 14:16:12;;;;;;;1.77;0.45;;;19.20;53.50;;;;;;4995827;28;20174;-83
2022/02/11 14:18:39;;;;;;;1.48;0.38;;;19.20;52.00;;;;;;4996633;28;20159;-83
2022/02/11 14:21:05;;;;;;;0.30;0.30;;;19.30;51.90;;;;;;4998808;28;20172;-83
2022/02/11 14:23:31;;;;;;;2.03;0.50;;;19.30;51.50;;;;;;4997023;28;20230;-83
2022/02/11 14:26:01;;;;;;;0.55;0.50;;;19.30;53.40;;;;;;4998068;28;20231;-83
2022/02/11 14:28:34;;;;;;;0.85;0.57;;;19.20;53.60;;;;;;4995599;28;20237;-83
2022/02/11 14:31:02;;;;;;;0.68;0.50;;;19.20;53.80;;;;;;4996908;28;20226;-83
2022/02/11 14:33:30;;;;;;;0.40;0.40;;;19.20;52.90;;;;;;5014821;28;20155;-82
2022/02/11 14:35:55;;;;;;;0.60;0.45;;;19.20;52.10;;;;;;4963307;28;20203;-84
2022/02/11 14:38:22;;;;;;;1.40;0.60;;;19.20;53.30;;;;;;5014590;28;20228;-83
2022/02/11 14:43:31;;;;;;;2.33;0.50;;;19.20;52.60;;;;;;4967997;28;20265;-84
2022/02/11 14:46:00;;;;;;;0.63;0.40;;;19.20;52.90;;;;;;4963684;28;20242;-83
2022/02/11 14:48:26;;;;;;;0.52;0.50;;;19.30;51.10;;;;;;4963353;28;20207;-83
2022/02/11 14:50:53;;;;;;;0.40;0.40;;;19.30;52.40;;;;;;4996265;28;20646;-82
2022/02/11 14:53:19;;;;;;;0.70;0.52;;;19.20;52.50;;;;;;4962575;28;20228;-83
2022/02/11 14:55:44;;;;;;;1.00;0.40;;;19.20;52.60;;;;;;4979014;28;20179;-82
2022/02/11 14:58:10;;;;;;;1.00;0.47;;;19.30;52.80;;;;;;4979099;28;20522;-83
2022/02/11 15:00:36;;;;;;;0.77;0.40;;;19.20;52.80;;;;;;4995946;28;20155;-84
2022/02/11 15:03:02;;;;;;;0.98;0.40;;;19.20;52.30;;;;;;4996103;28;20151;-83
2022/02/11 15:05:28;;;;;;;1.15;0.55;;;19.20;51.90;;;;;;4979457;28;20626;-83
2022/02/11 15:07:53;;;;;;;0.40;0.32;;;19.20;51.70;;;;;;4996194;28;20194;-83
2022/02/11 15:10:20;;;;;;;0.85;0.50;;;19.20;53.00;;;;;;5014393;28;20245;-83
2022/02/11 15:12:48;;;;;;;1.70;0.50;;;19.30;53.00;;;;;;4979590;28;20152;-83
2022/02/11 15:15:13;;;;;;;0.98;0.40;;;19.30;51.90;;;;;;4975451;28;20178;-82
2022/02/11 15:17:40;;;;;;;1.17;0.50;;;19.20;51.50;;;;;;4992049;28;20152;-83
2022/02/11 15:20:06;;;;;;;0.57;0.50;;;19.20;52.40;;;;;;4992325;28;20267;-82
2022/02/11 15:22:33;;;;;;;1.10;0.55;;;19.30;52.00;;;;;;4991997;28;20160;-82
2022/02/11 15:24:58;;;;;;;0.52;0.45;;;19.30;52.80;;;;;;4976114;28;20191;-81
2022/02/11 15:27:24;;;;;;;1.38;0.45;;;19.30;52.00;;;;;;4976848;28;20231;-82
2022/02/11 15:29:49;;;;;;;1.25;0.68;;;19.20;51.80;;;;;;4992727;28;20239;-82
2022/02/11 15:32:15;;;;;;;0.70;0.57;;;19.20;51.80;;;;;;4994565;28;20290;-83
2022/02/11 15:34:41;;;;;;;0.70;0.50;;;19.30;52.70;;;;;;4996621;28;20243;-83
2022/02/11 15:37:06;;;;;;;1.27;0.50;;;19.30;51.90;;;;;;4997571;28;20603;-83
2022/02/11 15:39:33;;;;;;;0.43;0.40;;;19.20;51.50;;;;;;4981955;28;20198;-84
2022/02/11 15:41:59;;;;;;;10.45;1.30;;;19.20;52.00;;;;;;4966968;28;20630;-84
2022/02/11 15:44:24;;;;;;;19.77;2.13;;;19.20;52.70;;;;;;4982767;28;20226;-84
2022/02/11 15:46:50;;;;;;;26.42;2.10;;;19.20;52.80;;;;;;4998878;28;20250;-84
2022/02/11 15:49:16;;;;;;;20.75;1.85;;;19.20;52.60;;;;;;4983465;28;20324;-84
2022/02/11 15:51:41;;;;;;;19.80;1.70;;;19.20;53.80;;;;;;4999232;28;20187;-84
2022/02/11 15:54:08;;;;;;;10.27;1.05;;;19.20;53.30;;;;;;4982464;28;20167;-84
2022/02/11 15:56:34;;;;;;;7.88;0.93;;;19.20;52.80;;;;;;4965009;28;20203;-83
2022/02/11 15:58:59;;;;;;;7.20;1.25;;;19.20;52.30;;;;;;4998536;28;20159;-84